This is the latest recevied weather packets stored in our database for station/object N8QQ. If no packets are shown the sender has not sent any weather packets the latest 10 day(s).
| Time | Temp. | Humidity | Pressure | Rain* | Wind** | Luminosity | Snow |
|---|---|---|---|---|---|---|---|
| 1778002818 | 20° C | 74% | 1004.1 hPa | 0 mm | - | - | - |
| 1778002215 | 19.44° C | 74% | 1004.3 hPa | 0 mm | - | - | - |
| 1777999842 | 18.89° C | 76% | 1004.4 hPa | 0 mm | - | - | - |
| 1777993219 | 19.44° C | 81% | 1004.2 hPa | 0 mm | - | - | - |
| 1777986021 | 15° C | 99% | 1003.3 hPa | 0 mm | - | - | - |
| 1777982420 | 13.89° C | 99% | 1004.4 hPa | 0 mm | - | - | - |
| 1777980650 | 13.89° C | 99% | 1003.6 hPa | 0.25 mm | - | - | - |
| 1777979418 | 13.33° C | 99% | 1003.1 hPa | 0.76 mm | - | - | - |
| 1777974626 | - | - | 1004.7 hPa | 0.51 mm | - | - | - |
| 1777969832 | 17.22° C | 69% | 1002.3 hPa | 0 mm | - | - | - |
| 1777969238 | 17.22° C | 68% | 1002 hPa | 0 mm | - | - | - |
| 1777965016 | 18.33° C | 64% | 1001.8 hPa | 0 mm | - | - | - |
| 1777963251 | 18.33° C | 64% | 1001.8 hPa | 0 mm | - | - | - |
| 1777962040 | 18.33° C | 64% | 1001.6 hPa | 0 mm | - | - | - |
| 1777958440 | 18.89° C | 62% | 1001.2 hPa | 0 mm | - | - | - |
| 1777956033 | 18.89° C | 63% | 1001.5 hPa | 0 mm | - | - | - |
| 1777953018 | 19.44° C | 63% | 1002 hPa | 0 mm | - | - | - |
| 1777947025 | 18.33° C | 68% | 1000.9 hPa | 0 mm | - | - | - |
| 1777945832 | 18.89° C | 67% | 1000.7 hPa | 0 mm | - | - | - |
| 1777942851 | 20° C | 62% | 1000.5 hPa | 0 mm | - | - | - |
| 1777939231 | 22.22° C | 55% | 1000.8 hPa | 0 mm | - | - | - |
| 1777936217 | 23.89° C | 49% | 1001.2 hPa | 0 mm | - | - | - |
| 1777935023 | 23.89° C | 49% | 1001.4 hPa | 0 mm | - | - | - |
| 1777934426 | 24.44° C | 49% | 1001.4 hPa | 0 mm | - | - | - |
| 1777925424 | 23.89° C | 54% | 1003.1 hPa | 0 mm | - | - | - |
* Rain latest hour (hover to see other rain measurements)
** Current wind speed in m/s (hover to see current wind gust speed)